Time;durP1;ratioP1;P1;durP2;ratioP2;P2;SDS_P1;SDS_P2;PMS_P1;PMS_P2;Temp;Humidity;BMP_temperature;BMP_pressure;BME280_temperature;BME280_humidity;BME280_pressure;Samples;Min_cycle;Max_cycle;Signal;HPM_P1;HPM_P2
2022/08/03 00:01:14;;;;;;;5.40;4.43;;;;;;;;;;5069291;28;20024;-47
2022/08/03 00:03:39;;;;;;;;;;;;;;;;;;5071034;28;20024;-44
2022/08/03 00:06:06;;;;;;;6.53;4.33;;;;;;;;;;5071031;28;20438;-44
2022/08/03 00:08:31;;;;;;;5.47;4.32;;;;;;;;;;5070194;28;20044;-44
2022/08/03 00:10:56;;;;;;;7.30;4.40;;;;;;;;;;5070413;28;20027;-45
2022/08/03 00:13:22;;;;;;;4.78;4.25;;;;;;;;;;5072435;28;20017;-45
2022/08/03 00:15:47;;;;;;;7.85;4.70;;;;;;;;;;5074285;28;20133;-44
2022/08/03 00:18:12;;;;;;;5.40;4.63;;;;;;;;;;5072477;28;20371;-44
2022/08/03 00:20:37;;;;;;;6.30;3.90;;;;;;;;;;5074167;28;20448;-45
2022/08/03 00:23:03;;;;;;;8.57;4.78;;;;;;;;;;5074201;28;20538;-44
2022/08/03 00:25:28;;;;;;;5.22;4.40;;;;;;;;;;5072275;28;20023;-44
2022/08/03 00:27:53;;;;;;;4.68;4.20;;;;;;;;;;5073973;28;20013;-45
2022/08/03 00:30:19;;;;;;;8.23;4.78;;;;;;;;;;5072754;28;20086;-45
2022/08/03 00:32:44;;;;;;;6.50;4.55;;;;;;;;;;5072662;28;20013;-44
2022/08/03 00:35:10;;;;;;;6.95;4.53;;;;;;;;;;5072802;28;20031;-46
2022/08/03 00:37:36;;;;;;;7.10;4.75;;;;;;;;;;5073175;28;20028;-44
2022/08/03 00:40:01;;;;;;;4.83;4.13;;;;;;;;;;5073421;28;20020;-45
2022/08/03 00:42:26;;;;;;;5.68;3.88;;;;;;;;;;5073699;28;20280;-44
2022/08/03 00:44:51;;;;;;;4.50;4.10;;;;;;;;;;5072478;28;20013;-44
2022/08/03 00:47:17;;;;;;;10.10;4.38;;;;;;;;;;5072191;28;20066;-44
2022/08/03 00:49:42;;;;;;;5.60;4.47;;;;;;;;;;5072173;28;20059;-44
2022/08/03 00:52:08;;;;;;;6.45;4.82;;;;;;;;;;5073849;28;20095;-44
2022/08/03 00:54:35;;;;;;;5.65;4.45;;;;;;;;;;5072299;28;20009;-44
2022/08/03 00:57:00;;;;;;;8.93;4.47;;;;;;;;;;5073747;28;20019;-45
2022/08/03 00:59:26;;;;;;;5.00;4.20;;;;;;;;;;5073144;28;20024;-44
2022/08/03 01:01:52;;;;;;;6.10;4.80;;;;;;;;;;5072923;28;20020;-44
2022/08/03 01:04:17;;;;;;;7.82;4.82;;;;;;;;;;5073179;28;20020;-44
2022/08/03 01:07:00;;;;;;;5.80;4.68;;;;;;;;;;5072334;28;20020;-45
2022/08/03 01:09:45;;;;;;;5.03;4.50;;;;;;;;;;5073250;28;20048;-43
2022/08/03 01:12:31;;;;;;;8.23;5.20;;;;;;;;;;5073389;28;20020;-47
2022/08/03 01:15:09;;;;;;;10.15;5.45;;;;;;;;;;5073314;28;20017;-44
2022/08/03 01:17:57;;;;;;;6.43;4.53;;;;;;;;;;5071791;28;20367;-44
2022/08/03 01:20:24;;;;;;;7.88;5.15;;;;;;;;;;5064608;28;20036;-45
2022/08/03 01:23:09;;;;;;;6.43;4.88;;;;;;;;;;5072984;28;20059;-44
2022/08/03 01:25:53;;;;;;;5.18;4.57;;;;;;;;;;5073155;28;20014;-44
2022/08/03 01:28:38;;;;;;;6.18;4.60;;;;;;;;;;5071250;28;20027;-45
2022/08/03 01:31:05;;;;;;;14.02;4.68;;;;;;;;;;5071137;28;20024;-45
2022/08/03 01:33:35;;;;;;;6.28;4.80;;;;;;;;;;5072581;28;20020;-46
2022/08/03 01:36:21;;;;;;;8.02;4.65;;;;;;;;;;5072776;28;20075;-45
2022/08/03 01:38:59;;;;;;;7.70;4.90;;;;;;;;;;5070599;28;20004;-44
2022/08/03 01:41:28;;;;;;;6.32;4.88;;;;;;;;;;5072297;28;20024;-44
2022/08/03 01:43:53;;;;;;;;;;;;;;;;;;5071135;28;20459;-44
2022/08/03 01:46:20;;;;;;;11.65;5.13;;;;;;;;;;5071097;28;19900;-45
2022/08/03 01:48:47;;;;;;;5.82;4.85;;;;;;;;;;5071278;28;20052;-45
2022/08/03 01:51:15;;;;;;;5.75;4.72;;;;;;;;;;5070843;28;20017;-44
2022/08/03 01:53:44;;;;;;;6.80;4.78;;;;;;;;;;5072182;28;20017;-45
2022/08/03 01:56:11;;;;;;;6.70;4.10;;;;;;;;;;5070902;28;20505;-46
2022/08/03 01:58:38;;;;;;;7.25;4.82;;;;;;;;;;5072092;28;20013;-44
2022/08/03 02:01:04;;;;;;;7.65;4.88;;;;;;;;;;5072605;28;20382;-45
2022/08/03 02:03:33;;;;;;;7.93;4.85;;;;;;;;;;5070487;28;20050;-44
2022/08/03 02:05:59;;;;;;;10.38;5.75;;;;;;;;;;5072086;28;20448;-45
2022/08/03 02:08:26;;;;;;;6.18;5.25;;;;;;;;;;5072002;28;20040;-45
2022/08/03 02:10:54;;;;;;;10.65;4.88;;;;;;;;;;5070618;28;20031;-45
2022/08/03 02:13:20;;;;;;;4.90;4.32;;;;;;;;;;5071203;28;20020;-45
2022/08/03 02:15:46;;;;;;;5.82;5.15;;;;;;;;;;5072186;28;20039;-46
2022/08/03 02:18:12;;;;;;;6.45;4.28;;;;;;;;;;5072304;28;20048;-45
2022/08/03 02:20:38;;;;;;;6.53;4.90;;;;;;;;;;5070483;28;20059;-44
2022/08/03 02:23:05;;;;;;;6.40;5.28;;;;;;;;;;5071824;28;20039;-44
2022/08/03 02:25:32;;;;;;;5.10;4.57;;;;;;;;;;5071930;28;20331;-44
2022/08/03 02:28:05;;;;;;;7.53;4.93;;;;;;;;;;5071639;28;20012;-45
2022/08/03 02:30:37;;;;;;;7.00;4.93;;;;;;;;;;5071519;28;20515;-44
2022/08/03 02:33:04;;;;;;;10.05;5.63;;;;;;;;;;5071928;28;20009;-45
2022/08/03 02:35:31;;;;;;;7.95;5.47;;;;;;;;;;5071396;28;20482;-45
2022/08/03 02:37:58;;;;;;;8.25;5.18;;;;;;;;;;5070752;28;20016;-45
2022/08/03 02:40:26;;;;;;;5.50;4.93;;;;;;;;;;5071121;28;20012;-45
2022/08/03 02:42:53;;;;;;;6.03;4.47;;;;;;;;;;5071682;28;20028;-44
2022/08/03 02:45:20;;;;;;;5.30;4.70;;;;;;;;;;5071595;28;20448;-46
2022/08/03 02:47:47;;;;;;;6.93;5.60;;;;;;;;;;5071588;28;20025;-44
2022/08/03 02:50:15;;;;;;;6.70;5.50;;;;;;;;;;5071294;28;20012;-44
2022/08/03 02:52:41;;;;;;;7.18;5.68;;;;;;;;;;5071075;28;20074;-45
2022/08/03 02:55:07;;;;;;;6.70;5.47;;;;;;;;;;5071226;28;20017;-45
2022/08/03 02:57:33;;;;;;;6.45;5.10;;;;;;;;;;5070372;28;20008;-44
2022/08/03 02:59:59;;;;;;;9.77;5.35;;;;;;;;;;5071625;28;20009;-44
2022/08/03 03:02:25;;;;;;;6.93;5.45;;;;;;;;;;5071161;28;20032;-44
2022/08/03 03:04:51;;;;;;;8.23;6.10;;;;;;;;;;5071418;28;20039;-44
2022/08/03 03:07:17;;;;;;;7.65;5.00;;;;;;;;;;5071349;28;20412;-44
2022/08/03 03:09:43;;;;;;;7.30;5.45;;;;;;;;;;5070911;28;20031;-43
2022/08/03 03:12:10;;;;;;;6.40;5.10;;;;;;;;;;5071127;28;20020;-44
2022/08/03 03:14:35;;;;;;;6.47;5.53;;;;;;;;;;5070946;28;20020;-44
2022/08/03 03:17:01;;;;;;;5.93;5.32;;;;;;;;;;5071898;28;20013;-44
2022/08/03 03:19:26;;;;;;;8.35;5.95;;;;;;;;;;5071160;28;20103;-45
2022/08/03 03:21:52;;;;;;;6.28;5.30;;;;;;;;;;5069807;28;20059;-44
2022/08/03 03:24:18;;;;;;;9.38;5.40;;;;;;;;;;5069340;28;20085;-43
2022/08/03 03:26:43;;;;;;;7.55;5.22;;;;;;;;;;5071517;28;20550;-44
2022/08/03 03:29:09;;;;;;;7.57;5.07;;;;;;;;;;5070697;28;20029;-44
2022/08/03 03:31:34;;;;;;;6.70;5.47;;;;;;;;;;5071445;28;20017;-44
2022/08/03 03:33:59;;;;;;;10.52;6.15;;;;;;;;;;5070114;28;20012;-46
2022/08/03 03:36:25;;;;;;;7.00;6.20;;;;;;;;;;5069862;28;20371;-44
2022/08/03 03:38:50;;;;;;;7.72;5.70;;;;;;;;;;5071034;28;20471;-44
2022/08/03 03:41:15;;;;;;;7.10;5.57;;;;;;;;;;5070701;28;20101;-44
2022/08/03 03:43:41;;;;;;;5.68;5.07;;;;;;;;;;5070893;28;20035;-46
2022/08/03 03:46:07;;;;;;;7.78;6.15;;;;;;;;;;5070337;28;20320;-44
2022/08/03 03:48:32;;;;;;;6.88;5.57;;;;;;;;;;5074050;28;20032;-44
2022/08/03 03:50:58;;;;;;;8.80;5.45;;;;;;;;;;5074449;28;20111;-44
2022/08/03 03:53:23;;;;;;;7.60;5.88;;;;;;;;;;5074318;28;20008;-44
2022/08/03 03:55:50;;;;;;;8.75;5.95;;;;;;;;;;5074426;28;20150;-43
2022/08/03 03:58:16;;;;;;;7.55;5.43;;;;;;;;;;5074641;28;20463;-45
2022/08/03 04:00:44;;;;;;;8.15;5.45;;;;;;;;;;5073251;28;20023;-44
2022/08/03 04:03:09;;;;;;;7.63;5.82;;;;;;;;;;5072894;28;20032;-45
2022/08/03 04:11:23;;;;;;;6.70;5.20;;;;;;;;;;5074360;28;20050;-44
2022/08/03 04:13:54;;;;;;;8.32;5.50;;;;;;;;;;5073137;28;20028;-44
2022/08/03 04:16:21;;;;;;;9.35;5.72;;;;;;;;;;5074498;28;20366;-46
2022/08/03 04:18:49;;;;;;;6.53;4.95;;;;;;;;;;5074354;28;20406;-45
2022/08/03 04:21:17;;;;;;;8.45;4.80;;;;;;;;;;5074168;28;20412;-46
2022/08/03 04:23:44;;;;;;;10.35;5.22;;;;;;;;;;5074120;28;20046;-45
2022/08/03 04:26:12;;;;;;;14.18;5.60;;;;;;;;;;5074023;28;20021;-45
2022/08/03 04:28:40;;;;;;;8.93;5.03;;;;;;;;;;5074290;28;20009;-45
2022/08/03 04:31:05;;;;;;;9.02;5.07;;;;;;;;;;5072565;28;20012;-46
2022/08/03 04:33:32;;;;;;;10.30;4.40;;;;;;;;;;5074134;28;20025;-45
2022/08/03 04:35:58;;;;;;;6.80;5.35;;;;;;;;;;5072601;28;20355;-45
2022/08/03 04:38:24;;;;;;;5.82;4.78;;;;;;;;;;5073730;28;20020;-46
2022/08/03 04:40:49;;;;;;;12.65;5.93;;;;;;;;;;5074173;28;20087;-45
2022/08/03 04:43:17;;;;;;;14.23;5.43;;;;;;;;;;5072402;28;20629;-45
2022/08/03 04:45:42;;;;;;;7.03;5.25;;;;;;;;;;5073555;28;20052;-47
2022/08/03 04:48:08;;;;;;;15.27;6.40;;;;;;;;;;5072564;28;20048;-44
2022/08/03 04:50:34;;;;;;;10.63;4.95;;;;;;;;;;5074036;28;20524;-44
2022/08/03 04:52:59;;;;;;;8.60;5.13;;;;;;;;;;5073101;28;20052;-47
2022/08/03 04:55:28;;;;;;;14.38;6.28;;;;;;;;;;5073590;28;20399;-45
2022/08/03 04:57:53;;;;;;;9.40;5.60;;;;;;;;;;5071685;28;20510;-44
2022/08/03 05:00:19;;;;;;;16.30;6.07;;;;;;;;;;5072896;28;20059;-45
2022/08/03 05:02:44;;;;;;;27.38;6.25;;;;;;;;;;5072650;28;20506;-46
2022/08/03 05:05:10;;;;;;;18.17;5.87;;;;;;;;;;5071858;28;20364;-45
2022/08/03 05:07:36;;;;;;;20.27;5.43;;;;;;;;;;5073691;28;20280;-45
2022/08/03 05:10:02;;;;;;;14.10;5.25;;;;;;;;;;5072011;28;20021;-43
2022/08/03 05:12:27;;;;;;;14.10;5.90;;;;;;;;;;5072086;28;20017;-44
2022/08/03 05:14:52;;;;;;;18.90;6.97;;;;;;;;;;5073206;28;20355;-47
2022/08/03 05:17:18;;;;;;;8.82;6.38;;;;;;;;;;5071926;28;20273;-44
2022/08/03 05:19:43;;;;;;;6.95;5.05;;;;;;;;;;5072003;28;20062;-45
2022/08/03 05:22:09;;;;;;;8.98;5.07;;;;;;;;;;5071900;28;20032;-47
2022/08/03 05:24:34;;;;;;;11.60;6.10;;;;;;;;;;5073213;28;20474;-45
2022/08/03 05:26:59;;;;;;;8.35;6.22;;;;;;;;;;5072915;28;20091;-45
2022/08/03 05:29:25;;;;;;;9.13;5.30;;;;;;;;;;5072903;28;20096;-46
2022/08/03 05:31:50;;;;;;;14.67;7.43;;;;;;;;;;5071555;28;20375;-46
2022/08/03 05:34:15;;;;;;;12.65;6.88;;;;;;;;;;5073177;28;20236;-42
2022/08/03 05:36:41;;;;;;;8.43;6.85;;;;;;;;;;5072995;28;20020;-45
2022/08/03 05:39:06;;;;;;;11.98;6.57;;;;;;;;;;5071671;28;20016;-46
2022/08/03 05:41:31;;;;;;;10.75;7.35;;;;;;;;;;5065960;28;20760;-46
2022/08/03 05:43:57;;;;;;;19.37;5.53;;;;;;;;;;5066804;28;20032;-45
2022/08/03 05:46:22;;;;;;;9.10;6.47;;;;;;;;;;5065281;28;20249;-45
2022/08/03 05:48:48;;;;;;;15.45;7.05;;;;;;;;;;5065709;28;20028;-45
2022/08/03 05:51:13;;;;;;;11.98;6.38;;;;;;;;;;5066402;28;20024;-45
2022/08/03 05:53:40;;;;;;;8.75;6.35;;;;;;;;;;5065036;28;20491;-46
2022/08/03 05:56:05;;;;;;;6.53;5.65;;;;;;;;;;5062363;28;20028;-44
2022/08/03 05:58:31;;;;;;;11.40;5.53;;;;;;;;;;5058599;28;20017;-45
2022/08/03 06:00:56;;;;;;;11.77;5.97;;;;;;;;;;5059819;28;20450;-45
2022/08/03 06:03:22;;;;;;;21.15;6.40;;;;;;;;;;5059453;28;20032;-45
2022/08/03 06:05:47;;;;;;;8.40;6.53;;;;;;;;;;5064749;28;20039;-45
2022/08/03 06:08:13;;;;;;;21.63;6.45;;;;;;;;;;5063184;28;20044;-43
2022/08/03 06:10:38;;;;;;;9.45;6.43;;;;;;;;;;5064081;28;20040;-42
2022/08/03 06:13:04;;;;;;;14.57;5.72;;;;;;;;;;5067155;28;20028;-42
2022/08/03 06:15:32;;;;;;;28.25;6.18;;;;;;;;;;5062945;28;20467;-43
2022/08/03 06:17:57;;;;;;;14.85;6.22;;;;;;;;;;5065683;28;20055;-43
2022/08/03 06:20:22;;;;;;;10.70;5.57;;;;;;;;;;5068602;28;20052;-42
2022/08/03 06:22:48;;;;;;;6.50;5.57;;;;;;;;;;5070667;28;20040;-44
2022/08/03 06:25:13;;;;;;;12.90;5.47;;;;;;;;;;5066553;28;20012;-42
2022/08/03 06:27:41;;;;;;;8.60;5.65;;;;;;;;;;5069752;28;20804;-42
2022/08/03 06:30:09;;;;;;;6.95;5.70;;;;;;;;;;5076400;28;20085;-43
2022/08/03 06:32:34;;;;;;;7.25;5.57;;;;;;;;;;5071140;28;20024;-46
2022/08/03 06:34:59;;;;;;;19.63;8.13;;;;;;;;;;5072504;28;20038;-47
2022/08/03 06:37:25;;;;;;;9.73;5.30;;;;;;;;;;5071756;28;20028;-44
2022/08/03 06:39:51;;;;;;;9.15;5.43;;;;;;;;;;5069856;28;20608;-47
2022/08/03 06:42:16;;;;;;;8.00;5.07;;;;;;;;;;5070421;28;20040;-48
2022/08/03 06:44:42;;;;;;;11.20;5.80;;;;;;;;;;5070378;28;20074;-43
2022/08/03 06:47:07;;;;;;;5.40;4.68;;;;;;;;;;5072148;28;20024;-50
2022/08/03 06:49:32;;;;;;;7.10;5.70;;;;;;;;;;5066970;28;20026;-45
2022/08/03 06:51:58;;;;;;;11.02;5.63;;;;;;;;;;5079423;28;20071;-43
2022/08/03 06:54:23;;;;;;;9.20;5.90;;;;;;;;;;5060822;28;20486;-44
2022/08/03 06:56:49;;;;;;;6.18;4.88;;;;;;;;;;5053617;28;20481;-43
2022/08/03 06:59:14;;;;;;;6.68;4.60;;;;;;;;;;5068467;28;20039;-44
2022/08/03 07:01:40;;;;;;;5.75;5.05;;;;;;;;;;5069886;28;20027;-46
2022/08/03 07:04:05;;;;;;;7.22;4.80;;;;;;;;;;5069107;28;20423;-44
2022/08/03 07:06:30;;;;;;;5.60;4.30;;;;;;;;;;5065962;28;20028;-43
2022/08/03 07:08:56;;;;;;;10.37;4.73;;;;;;;;;;5069281;28;20052;-44
2022/08/03 07:11:21;;;;;;;12.60;5.20;;;;;;;;;;5060925;28;20318;-46
2022/08/03 07:13:46;;;;;;;7.20;4.20;;;;;;;;;;5055833;28;20503;-44
2022/08/03 07:16:12;;;;;;;5.50;4.33;;;;;;;;;;5061139;28;20092;-45
2022/08/03 07:18:38;;;;;;;7.22;5.07;;;;;;;;;;5054960;28;20353;-47
2022/08/03 07:21:03;;;;;;;5.88;4.82;;;;;;;;;;5063751;28;20442;-41
2022/08/03 07:23:28;;;;;;;4.97;4.13;;;;;;;;;;5072765;28;20039;-43
2022/08/03 07:25:54;;;;;;;6.63;4.20;;;;;;;;;;5073669;28;20237;-42
2022/08/03 07:28:19;;;;;;;5.90;4.63;;;;;;;;;;5073111;28;20020;-43
2022/08/03 07:30:44;;;;;;;6.88;4.03;;;;;;;;;;5072836;28;20693;-44
2022/08/03 07:33:10;;;;;;;4.93;4.00;;;;;;;;;;5074261;28;20425;-44
2022/08/03 07:35:35;;;;;;;9.88;4.70;;;;;;;;;;5073704;28;20020;-43
2022/08/03 07:38:01;;;;;;;8.38;4.18;;;;;;;;;;5074502;28;20023;-43
2022/08/03 07:40:26;;;;;;;5.30;4.80;;;;;;;;;;5072807;28;20082;-40
2022/08/03 07:42:51;;;;;;;4.50;4.07;;;;;;;;;;5073924;28;20036;-43
2022/08/03 07:45:17;;;;;;;5.20;4.70;;;;;;;;;;5073056;28;20021;-41
2022/08/03 07:47:42;;;;;;;7.45;4.57;;;;;;;;;;5072483;28;20103;-42
2022/08/03 07:50:08;;;;;;;4.95;4.45;;;;;;;;;;5073757;28;20020;-42
2022/08/03 07:52:48;;;;;;;5.38;4.68;;;;;;;;;;5066912;28;20403;-41
2022/08/03 07:55:14;;;;;;;4.63;4.07;;;;;;;;;;5061567;28;20025;-43
2022/08/03 07:57:39;;;;;;;5.53;4.10;;;;;;;;;;5056828;28;20025;-43
2022/08/03 08:00:07;;;;;;;5.05;4.50;;;;;;;;;;5073668;28;20108;-44
2022/08/03 08:02:33;;;;;;;6.38;4.28;;;;;;;;;;5068916;28;20380;-43
2022/08/03 08:04:58;;;;;;;5.47;3.80;;;;;;;;;;5071517;28;20024;-44
2022/08/03 08:07:24;;;;;;;8.02;4.07;;;;;;;;;;5069946;28;20024;-44
2022/08/03 08:09:50;;;;;;;7.53;3.88;;;;;;;;;;5067072;28;20031;-43
2022/08/03 08:12:15;;;;;;;7.10;3.92;;;;;;;;;;5070246;28;20433;-43
2022/08/03 08:14:41;;;;;;;5.63;3.60;;;;;;;;;;5065184;28;20147;-44
2022/08/03 08:17:06;;;;;;;7.68;3.58;;;;;;;;;;5075551;28;20031;-44
2022/08/03 08:19:32;;;;;;;4.40;3.78;;;;;;;;;;5072331;28;20086;-41
2022/08/03 08:21:57;;;;;;;5.93;4.47;;;;;;;;;;5078041;28;20062;-39
2022/08/03 08:24:22;;;;;;;6.47;3.83;;;;;;;;;;5074274;28;20070;-42
2022/08/03 08:26:48;;;;;;;7.80;4.03;;;;;;;;;;5073226;28;20025;-45
2022/08/03 08:29:13;;;;;;;8.13;4.30;;;;;;;;;;5068668;28;20040;-40
2022/08/03 08:31:38;;;;;;;6.78;4.40;;;;;;;;;;5077872;28;20016;-45
2022/08/03 08:34:07;;;;;;;4.38;3.80;;;;;;;;;;5072554;28;20052;-43
2022/08/03 08:36:32;;;;;;;;;;;;;;;;;;5083912;28;20028;-39
2022/08/03 08:38:57;;;;;;;5.50;3.90;;;;;;;;;;5074863;28;20045;-44
2022/08/03 08:41:23;;;;;;;94.18;28.33;;;;;;;;;;5077481;28;20020;-41
2022/08/03 08:43:48;;;;;;;6.45;4.97;;;;;;;;;;5074781;28;20032;-41
2022/08/03 08:46:14;;;;;;;9.35;4.20;;;;;;;;;;5063333;28;20020;-36
2022/08/03 08:48:41;;;;;;;12.05;4.43;;;;;;;;;;5088424;28;20028;-41
2022/08/03 08:51:07;;;;;;;69.15;9.43;;;;;;;;;;5078834;28;20158;-42
2022/08/03 08:53:34;;;;;;;6.70;4.05;;;;;;;;;;5071136;28;20032;-44
2022/08/03 08:56:01;;;;;;;6.10;3.83;;;;;;;;;;5071595;28;20066;-41
2022/08/03 08:58:33;;;;;;;5.63;4.07;;;;;;;;;;5066482;28;20012;-44
2022/08/03 09:00:58;;;;;;;4.22;3.67;;;;;;;;;;5065433;28;20036;-42
2022/08/03 09:03:24;;;;;;;8.05;5.55;;;;;;;;;;5056679;28;20404;-43
2022/08/03 09:05:50;;;;;;;9.60;3.83;;;;;;;;;;5049065;28;20448;-39
2022/08/03 09:08:15;;;;;;;5.45;3.40;;;;;;;;;;5050959;28;20696;-40
2022/08/03 09:10:41;;;;;;;3.35;2.92;;;;;;;;;;5059659;28;20025;-40
2022/08/03 09:13:06;;;;;;;4.38;3.17;;;;;;;;;;5058554;28;20032;-41
2022/08/03 09:15:32;;;;;;;7.28;3.60;;;;;;;;;;5063044;28;20036;-43
2022/08/03 09:17:59;;;;;;;4.25;3.40;;;;;;;;;;5051934;28;20029;-42
2022/08/03 09:20:25;;;;;;;5.13;3.22;;;;;;;;;;5051319;28;20427;-42
2022/08/03 09:22:51;;;;;;;6.82;3.47;;;;;;;;;;5052472;28;20033;-42
2022/08/03 09:25:16;;;;;;;5.30;3.03;;;;;;;;;;5060799;28;20033;-43
2022/08/03 09:27:43;;;;;;;5.68;2.95;;;;;;;;;;5052489;28;20048;-40
2022/08/03 09:30:15;;;;;;;5.13;2.92;;;;;;;;;;5051626;28;20095;-41
2022/08/03 09:32:41;;;;;;;5.40;3.35;;;;;;;;;;5052237;28;20028;-43
2022/08/03 09:35:06;;;;;;;3.65;2.90;;;;;;;;;;5057938;28;20463;-37
2022/08/03 09:37:32;;;;;;;7.25;3.83;;;;;;;;;;5058518;28;20024;-40
2022/08/03 09:39:57;;;;;;;6.77;3.20;;;;;;;;;;5051894;28;20100;-43
2022/08/03 09:42:23;;;;;;;7.75;3.50;;;;;;;;;;5050135;28;20086;-42
2022/08/03 09:44:49;;;;;;;7.78;3.25;;;;;;;;;;5062580;28;20361;-41
2022/08/03 09:47:37;;;;;;;5.57;2.97;;;;;;;;;;5061776;28;20028;-43
2022/08/03 09:50:04;;;;;;;3.60;3.08;;;;;;;;;;5069685;28;20807;-44
2022/08/03 09:52:34;;;;;;;5.30;3.08;;;;;;;;;;5071389;28;20016;-40
2022/08/03 09:55:01;;;;;;;3.63;3.15;;;;;;;;;;5070915;28;20024;-46
2022/08/03 09:57:26;;;;;;;5.03;3.15;;;;;;;;;;5071279;28;20028;-42
2022/08/03 09:59:55;;;;;;;4.85;3.00;;;;;;;;;;5071630;28;20096;-44
2022/08/03 10:02:22;;;;;;;7.13;3.63;;;;;;;;;;5071750;28;20040;-38
2022/08/03 10:04:49;;;;;;;6.18;3.08;;;;;;;;;;5070641;28;20028;-41
2022/08/03 10:07:15;;;;;;;11.20;2.78;;;;;;;;;;5066468;28;20406;-43
2022/08/03 10:09:52;;;;;;;2.83;2.55;;;;;;;;;;5070245;28;20052;-45
2022/08/03 10:12:17;;;;;;;7.47;2.80;;;;;;;;;;5073475;28;20036;-43
2022/08/03 10:14:44;;;;;;;8.75;3.58;;;;;;;;;;5070623;28;20070;-44
2022/08/03 10:17:09;;;;;;;5.20;3.53;;;;;;;;;;5066640;28;20092;-42
2022/08/03 10:19:35;;;;;;;7.00;3.38;;;;;;;;;;5069711;28;20070;-42
2022/08/03 10:22:09;;;;;;;5.75;3.03;;;;;;;;;;5066263;28;20017;-45
2022/08/03 10:24:36;;;;;;;6.65;3.28;;;;;;;;;;5063269;28;20064;-44
2022/08/03 10:27:03;;;;;;;3.20;2.90;;;;;;;;;;5065470;28;20024;-44
2022/08/03 10:29:32;;;;;;;4.43;3.03;;;;;;;;;;5063263;28;20024;-43
2022/08/03 10:31:59;;;;;;;3.00;2.70;;;;;;;;;;5065114;28;20060;-42
2022/08/03 10:34:32;;;;;;;5.75;2.90;;;;;;;;;;5075356;28;20305;-40
2022/08/03 10:36:58;;;;;;;43.60;5.47;;;;;;;;;;5071390;28;20032;-44
2022/08/03 10:39:27;;;;;;;8.02;3.95;;;;;;;;;;5084278;28;20475;-40
2022/08/03 10:41:54;;;;;;;4.03;2.78;;;;;;;;;;5087397;28;20506;-40
2022/08/03 10:44:20;;;;;;;15.93;5.20;;;;;;;;;;5073902;28;20028;-38
2022/08/03 10:46:47;;;;;;;6.60;3.75;;;;;;;;;;5075463;28;20111;-38
2022/08/03 10:49:13;;;;;;;8.13;3.35;;;;;;;;;;5069740;28;20032;-39
2022/08/03 10:51:39;;;;;;;10.68;3.70;;;;;;;;;;5066511;28;20417;-42
2022/08/03 10:54:05;;;;;;;11.80;3.15;;;;;;;;;;5066536;28;20103;-44
2022/08/03 10:59:17;;;;;;;7.38;2.78;;;;;;;;;;5065933;28;20318;-39
2022/08/03 11:01:49;;;;;;;3.55;2.58;;;;;;;;;;5068462;28;20032;-44
2022/08/03 11:04:16;;;;;;;3.20;2.90;;;;;;;;;;5078710;28;20123;-44
2022/08/03 11:06:41;;;;;;;4.53;2.65;;;;;;;;;;5057900;28;20167;-42
2022/08/03 11:09:09;;;;;;;3.70;2.00;;;;;;;;;;5066218;28;20131;-44
2022/08/03 11:11:38;;;;;;;2.85;2.40;;;;;;;;;;5069979;28;20024;-39
2022/08/03 11:14:06;;;;;;;4.50;2.58;;;;;;;;;;5064756;28;20437;-44
2022/08/03 11:16:36;;;;;;;8.75;2.95;;;;;;;;;;5063241;28;20107;-44
2022/08/03 11:19:05;;;;;;;5.43;2.70;;;;;;;;;;5068005;28;20468;-41
2022/08/03 11:21:49;;;;;;;2.63;2.10;;;;;;;;;;5066228;28;20065;-43
2022/08/03 11:24:33;;;;;;;3.28;2.30;;;;;;;;;;5068869;28;20028;-45
2022/08/03 11:27:14;;;;;;;8.27;3.35;;;;;;;;;;5072962;28;20036;-41
2022/08/03 11:29:58;;;;;;;2.30;1.95;;;;;;;;;;5066623;28;20048;-42
2022/08/03 11:32:36;;;;;;;3.00;2.67;;;;;;;;;;5056279;28;20028;-40
2022/08/03 11:35:09;;;;;;;8.35;2.92;;;;;;;;;;5065321;28;20025;-40
2022/08/03 11:37:35;;;;;;;5.13;2.50;;;;;;;;;;5062567;28;20036;-44
2022/08/03 11:40:01;;;;;;;4.18;2.65;;;;;;;;;;5072039;28;20042;-40
2022/08/03 11:42:27;;;;;;;2.92;2.55;;;;;;;;;;5081440;28;20078;-44
2022/08/03 11:44:57;;;;;;;3.47;2.30;;;;;;;;;;5065463;28;20111;-44
2022/08/03 11:47:24;;;;;;;3.08;2.70;;;;;;;;;;5063506;28;20021;-43
2022/08/03 11:49:50;;;;;;;5.88;2.50;;;;;;;;;;5054716;28;20021;-43
2022/08/03 11:52:16;;;;;;;3.17;2.42;;;;;;;;;;5065021;28;20033;-41
2022/08/03 11:54:41;;;;;;;5.28;2.70;;;;;;;;;;5063659;28;20025;-43
2022/08/03 11:57:07;;;;;;;5.13;2.80;;;;;;;;;;5061097;28;20012;-42
2022/08/03 11:59:33;;;;;;;4.87;2.50;;;;;;;;;;5060312;28;20422;-42
2022/08/03 12:02:12;;;;;;;4.78;2.40;;;;;;;;;;5058385;28;20323;-43
2022/08/03 12:04:57;;;;;;;4.82;2.53;;;;;;;;;;5065286;28;20164;-45
2022/08/03 12:07:22;;;;;;;2.40;2.20;;;;;;;;;;5065387;28;20028;-45
2022/08/03 12:10:10;;;;;;;2.95;2.42;;;;;;;;;;5066250;28;20027;-45
2022/08/03 12:12:35;;;;;;;3.00;2.70;;;;;;;;;;5074390;28;20066;-44
2022/08/03 12:15:02;;;;;;;6.82;2.70;;;;;;;;;;5074438;28;20402;-46
2022/08/03 12:17:37;;;;;;;3.80;2.78;;;;;;;;;;5078069;28;20081;-43
2022/08/03 12:20:03;;;;;;;3.20;2.78;;;;;;;;;;5081339;28;20017;-43
2022/08/03 12:22:33;;;;;;;4.43;2.53;;;;;;;;;;5076161;28;20091;-42
2022/08/03 12:24:58;;;;;;;3.47;2.83;;;;;;;;;;5064962;28;20506;-42
2022/08/03 12:27:24;;;;;;;3.23;2.63;;;;;;;;;;5067983;28;20049;-43
2022/08/03 12:29:51;;;;;;;7.63;3.10;;;;;;;;;;5069990;28;20017;-45
2022/08/03 12:32:16;;;;;;;5.90;2.88;;;;;;;;;;5066729;28;20028;-40
2022/08/03 12:34:48;;;;;;;3.70;2.93;;;;;;;;;;5056295;28;20025;-42
2022/08/03 12:37:17;;;;;;;3.03;2.58;;;;;;;;;;5070183;28;20308;-43
2022/08/03 12:39:48;;;;;;;5.72;2.65;;;;;;;;;;5072821;28;20120;-43
2022/08/03 12:42:13;;;;;;;5.65;3.20;;;;;;;;;;5072188;28;20356;-43
2022/08/03 12:44:40;;;;;;;4.17;2.80;;;;;;;;;;5069678;28;20362;-44
2022/08/03 12:47:05;;;;;;;3.40;2.50;;;;;;;;;;5071814;28;20016;-41
2022/08/03 12:49:50;;;;;;;3.15;2.70;;;;;;;;;;5093796;28;20478;-42
2022/08/03 12:52:16;;;;;;;4.03;2.58;;;;;;;;;;5071595;28;20170;-43
2022/08/03 12:54:42;;;;;;;5.13;2.90;;;;;;;;;;5071718;28;20021;-40
2022/08/03 12:57:09;;;;;;;5.03;2.40;;;;;;;;;;5072155;28;20430;-43
2022/08/03 12:59:47;;;;;;;4.40;2.60;;;;;;;;;;5080114;28;20035;-42
2022/08/03 13:02:17;;;;;;;2.80;2.50;;;;;;;;;;5074033;28;20033;-42
2022/08/03 13:04:44;;;;;;;4.38;2.60;;;;;;;;;;5071266;28;20396;-40
2022/08/03 13:07:10;;;;;;;4.47;2.40;;;;;;;;;;5071514;28;20035;-41
2022/08/03 13:09:42;;;;;;;3.88;2.10;;;;;;;;;;5066772;28;20496;-45
2022/08/03 13:12:08;;;;;;;5.00;2.50;;;;;;;;;;5072693;28;20056;-43
2022/08/03 13:14:34;;;;;;;3.38;2.45;;;;;;;;;;5070405;28;20021;-41
2022/08/03 13:16:59;;;;;;;6.43;2.50;;;;;;;;;;5059340;28;20047;-46
2022/08/03 13:19:25;;;;;;;3.38;2.70;;;;;;;;;;5052183;28;20029;-40
2022/08/03 13:21:50;;;;;;;6.68;2.72;;;;;;;;;;5063013;28;20024;-41
2022/08/03 13:24:15;;;;;;;2.65;2.40;;;;;;;;;;5066339;28;20051;-40
2022/08/03 13:26:41;;;;;;;4.82;2.63;;;;;;;;;;5068179;28;20095;-44
2022/08/03 13:29:06;;;;;;;4.93;2.70;;;;;;;;;;5059412;28;20105;-45
2022/08/03 13:31:32;;;;;;;2.95;2.65;;;;;;;;;;5070146;28;20964;-41
2022/08/03 13:33:57;;;;;;;4.63;2.45;;;;;;;;;;5065361;28;20405;-42
2022/08/03 13:36:23;;;;;;;3.93;2.70;;;;;;;;;;5079114;28;20650;-47
2022/08/03 13:38:49;;;;;;;8.63;2.92;;;;;;;;;;5069742;28;20398;-44
2022/08/03 13:41:14;;;;;;;4.55;2.50;;;;;;;;;;5063798;28;20099;-44
2022/08/03 13:43:39;;;;;;;4.17;2.60;;;;;;;;;;5073013;28;20043;-44
2022/08/03 13:46:05;;;;;;;4.80;2.80;;;;;;;;;;5072823;28;20744;-46
2022/08/03 13:48:30;;;;;;;8.73;3.10;;;;;;;;;;5071727;28;20024;-45
2022/08/03 13:50:55;;;;;;;12.07;6.90;;;;;;;;;;5070171;28;20253;-41
2022/08/03 13:53:21;;;;;;;4.50;2.53;;;;;;;;;;5071648;28;20021;-40
2022/08/03 13:55:46;;;;;;;3.10;2.60;;;;;;;;;;5067327;28;20035;-43
2022/08/03 13:58:12;;;;;;;3.80;2.40;;;;;;;;;;5068241;28;20573;-41
2022/08/03 14:00:38;;;;;;;2.90;2.60;;;;;;;;;;5065568;28;20032;-40
2022/08/03 14:03:04;;;;;;;2.70;2.50;;;;;;;;;;5065783;28;20528;-44
2022/08/03 14:05:30;;;;;;;3.65;2.53;;;;;;;;;;5065056;28;20021;-43
2022/08/03 14:07:55;;;;;;;3.17;2.92;;;;;;;;;;5061938;28;20193;-44
2022/08/03 14:10:21;;;;;;;3.85;2.60;;;;;;;;;;5056264;28;20114;-43
2022/08/03 14:12:46;;;;;;;3.25;2.67;;;;;;;;;;5048486;28;20021;-46
2022/08/03 14:15:12;;;;;;;3.83;3.17;;;;;;;;;;5048121;28;20028;-44
2022/08/03 14:17:37;;;;;;;3.63;2.50;;;;;;;;;;5066227;28;20261;-44
2022/08/03 14:20:04;;;;;;;6.72;2.78;;;;;;;;;;5068925;28;20443;-47
2022/08/03 14:22:30;;;;;;;5.15;2.80;;;;;;;;;;5075362;28;20522;-44
2022/08/03 14:24:56;;;;;;;2.55;2.33;;;;;;;;;;5065845;28;20052;-45
2022/08/03 14:27:21;;;;;;;2.78;2.58;;;;;;;;;;5072497;28;20426;-42
2022/08/03 14:29:47;;;;;;;4.13;2.53;;;;;;;;;;5065894;28;20028;-45
2022/08/03 14:32:12;;;;;;;3.23;2.93;;;;;;;;;;5068087;28;20269;-46
2022/08/03 14:34:37;;;;;;;8.80;2.47;;;;;;;;;;5069156;28;20261;-46
2022/08/03 14:37:03;;;;;;;3.83;2.53;;;;;;;;;;5069294;28;20073;-43
2022/08/03 14:39:28;;;;;;;2.97;2.67;;;;;;;;;;5068582;28;20464;-44
2022/08/03 14:41:53;;;;;;;3.97;2.57;;;;;;;;;;5068248;28;20024;-45
2022/08/03 14:44:18;;;;;;;5.53;2.70;;;;;;;;;;5070493;28;20483;-46
2022/08/03 14:46:44;;;;;;;5.63;2.70;;;;;;;;;;5070041;28;20019;-45
2022/08/03 14:49:09;;;;;;;2.70;2.50;;;;;;;;;;5070965;28;20019;-44